createdAt,value
2018-08-17T03:33:13.186Z,88.90
2018-08-17T06:14:05.752Z,99.90
2018-08-17T06:16:35.860Z,99.90
2018-08-17T06:19:06.023Z,99.90
2018-08-17T06:21:35.827Z,99.90
2018-08-17T06:24:06.155Z,99.90
2018-08-17T06:26:35.808Z,99.90
2018-08-17T06:29:06.056Z,99.90
2018-08-17T06:31:36.239Z,99.90
2018-08-17T06:34:06.910Z,99.90
2018-08-17T06:36:36.876Z,99.90
2018-08-17T06:44:54.443Z,99.90
2018-08-17T06:47:28.840Z,99.90
2018-08-17T06:50:00.208Z,99.90
2018-08-17T06:52:30.432Z,99.90
2018-08-17T06:55:00.595Z,99.90
2018-08-17T06:57:31.093Z,99.90
2018-08-17T07:00:00.859Z,99.90
2018-08-17T07:02:34.294Z,99.90
2018-08-17T07:05:05.321Z,99.90
2018-08-17T07:07:35.262Z,99.90
2018-08-17T07:10:05.531Z,99.90
2018-08-17T07:12:35.803Z,99.90
2018-08-17T07:17:58.860Z,99.90
2018-08-17T07:20:28.928Z,99.90
2018-08-17T07:25:51.807Z,99.30
2018-08-17T07:31:16.009Z,97.60
2018-08-17T07:36:39.118Z,97.50
2018-08-17T07:44:54.680Z,98.80
2018-08-17T07:50:21.662Z,97.40
2018-08-17T07:52:53.337Z,96.60
2018-08-17T07:55:23.576Z,95.80
2018-08-17T07:57:53.668Z,95.90
2018-08-17T08:00:23.570Z,96.50
2018-08-17T08:05:46.453Z,95.60
2018-08-17T08:57:12.642Z,96.50
2018-08-17T09:11:11.994Z,95.80
2018-08-17T09:13:40.789Z,95.30
2018-08-17T09:22:04.496Z,96.00
2018-08-17T09:24:33.271Z,94.70
2018-08-17T09:29:55.384Z,94.40
2018-08-17T09:41:02.566Z,95.50
2018-08-17T09:43:31.647Z,95.70
2018-08-17T09:46:00.404Z,96.00
2018-08-17T09:48:29.222Z,95.40
2018-08-17T09:50:58.043Z,96.30
2018-08-17T09:53:26.958Z,91.80
2018-08-17T10:01:47.081Z,84.80
2018-08-17T10:04:21.108Z,82.00
2018-08-17T10:06:54.922Z,80.90
2018-08-17T10:10:37.696Z,80.50
2018-08-17T10:13:06.815Z,80.50
2018-08-17T10:24:27.604Z,83.40
2018-08-17T10:26:56.349Z,83.50
2018-08-17T10:38:05.923Z,86.80
2018-08-17T10:46:20.125Z,89.60
2018-08-17T10:48:49.040Z,88.30
2018-08-17T11:02:48.755Z,91.40
2018-08-17T11:08:10.574Z,92.10
2018-08-17T11:10:42.333Z,91.10
2018-08-17T11:13:11.154Z,91.10
2018-08-17T11:15:39.938Z,90.10
2018-08-17T11:23:54.379Z,88.80
2018-08-17T11:26:42.385Z,87.50
2018-08-17T11:29:11.177Z,86.10
2018-08-17T11:37:26.356Z,84.90
2018-08-17T11:40:10.084Z,83.40
2018-08-17T11:46:00.923Z,81.80
2018-08-17T11:55:05.691Z,81.00
2018-08-17T12:00:31.522Z,77.50
2018-08-17T12:14:31.309Z,70.50
2018-08-17T12:17:00.173Z,70.00
2018-08-17T12:19:47.839Z,69.00
2018-08-17T12:22:16.653Z,67.60
2018-08-17T12:27:38.906Z,67.70
2018-08-17T12:53:11.652Z,68.20
2018-08-17T12:58:44.359Z,65.20
2018-08-17T13:01:14.452Z,65.60
2018-08-17T13:03:45.000Z,64.30
2018-08-17T13:06:15.447Z,64.00
2018-08-17T13:12:01.662Z,59.50
2018-08-17T13:14:32.904Z,58.40
2018-08-17T13:17:19.174Z,58.70
2018-08-17T13:19:49.841Z,58.70
2018-08-17T13:28:06.426Z,58.30
2018-08-17T13:36:24.185Z,56.60
2018-08-17T13:38:54.671Z,55.10
2018-08-17T13:41:25.192Z,55.30
2018-08-17T13:46:53.861Z,53.50
2018-08-17T13:49:24.245Z,53.20
2018-08-17T13:51:56.482Z,53.20
2018-08-17T13:54:26.510Z,52.90
2018-08-17T13:56:56.246Z,51.90
2018-08-17T13:59:26.860Z,51.90
2018-08-17T14:01:56.949Z,53.00
2018-08-17T14:04:27.503Z,53.50
2018-08-17T14:06:57.806Z,53.90
2018-08-17T14:09:27.687Z,54.70
2018-08-17T14:12:11.937Z,54.50
2018-08-17T14:14:42.552Z,55.30
2018-08-17T14:17:13.426Z,56.90
2018-08-17T14:19:44.517Z,56.40
2018-08-17T14:22:14.283Z,57.10
2018-08-17T14:24:46.903Z,56.70
2018-08-17T14:27:17.875Z,58.60
2018-08-17T14:29:48.351Z,58.40
2018-08-17T14:32:20.572Z,57.90
2018-08-17T14:34:51.310Z,58.20
2018-08-17T14:37:21.136Z,58.30
2018-08-17T14:39:51.652Z,58.20
2018-08-17T14:42:21.687Z,57.70
2018-08-17T14:47:28.894Z,59.20
2018-08-17T14:50:00.047Z,60.60
2018-08-17T14:52:29.845Z,59.30
2018-08-17T14:55:00.353Z,57.20
2018-08-17T14:57:29.339Z,54.70
2018-08-17T15:00:00.269Z,53.80
2018-08-17T15:02:30.586Z,53.40
2018-08-17T15:05:00.977Z,52.80
2018-08-17T15:07:31.193Z,53.80
2018-08-17T15:10:01.296Z,54.10
2018-08-17T15:12:32.169Z,53.60
2018-08-17T15:15:02.395Z,53.00
2018-08-17T15:17:32.694Z,53.90
2018-08-17T15:20:02.665Z,54.20
2018-08-17T15:22:32.925Z,53.70
2018-08-17T15:25:04.187Z,51.20
2018-08-17T15:28:55.993Z,50.80
2018-08-17T15:31:27.054Z,51.10
2018-08-17T15:33:57.482Z,53.90
2018-08-17T15:39:21.989Z,54.90
2018-08-17T15:41:54.294Z,55.10
2018-08-17T15:44:26.656Z,56.60
2018-08-17T15:46:58.204Z,55.80
2018-08-17T15:52:12.799Z,53.70
2018-08-17T15:54:43.393Z,55.40
2018-08-17T15:57:13.859Z,56.40
2018-08-17T15:59:44.479Z,57.40
2018-08-17T16:02:14.561Z,58.20
2018-08-17T16:04:45.528Z,57.90
2018-08-17T16:07:15.649Z,57.40
2018-08-17T16:09:46.123Z,56.30
2018-08-17T16:12:16.885Z,55.40
2018-08-17T16:14:48.858Z,55.30
2018-08-17T16:17:19.270Z,56.40
2018-08-17T16:19:50.306Z,58.20
2018-08-17T16:22:20.544Z,58.80
2018-08-17T16:24:51.330Z,59.40
2018-08-17T16:27:21.879Z,59.40
2018-08-17T16:32:45.565Z,59.30
2018-08-17T16:48:59.471Z,56.80
2018-08-17T16:51:28.508Z,52.20
2018-08-17T16:53:58.302Z,51.30
2018-08-17T16:56:28.653Z,50.80
2018-08-17T16:58:59.014Z,50.90
2018-08-17T17:01:28.314Z,51.00
2018-08-17T17:03:58.207Z,52.20
2018-08-17T17:06:28.507Z,51.90
2018-08-17T17:09:05.294Z,52.20
2018-08-17T17:11:35.469Z,52.90
2018-08-17T17:14:05.310Z,52.90
2018-08-17T17:16:41.245Z,53.50
2018-08-17T17:19:20.695Z,53.70
2018-08-17T17:21:54.194Z,54.60
2018-08-17T17:24:25.587Z,55.90
2018-08-17T17:27:00.708Z,56.30
2018-08-17T17:29:34.436Z,57.40
2018-08-17T17:32:05.781Z,57.90
2018-08-17T17:34:36.374Z,58.70
2018-08-17T17:37:06.635Z,59.20
2018-08-17T17:39:37.085Z,59.50
2018-08-17T17:42:07.100Z,60.30
2018-08-17T17:44:37.672Z,61.20
2018-08-17T17:47:08.925Z,61.20
2018-08-17T17:49:39.768Z,62.60
2018-08-17T17:52:10.296Z,61.00
2018-08-17T17:54:40.875Z,61.90
2018-08-17T17:57:12.145Z,62.10
2018-08-17T17:59:48.692Z,62.30
2018-08-17T18:02:18.754Z,62.90
2018-08-17T18:04:48.950Z,63.20
2018-08-17T18:07:18.510Z,63.30
2018-08-17T18:09:48.581Z,63.20
2018-08-17T18:12:18.748Z,63.70
2018-08-17T18:14:48.708Z,64.50
2018-08-17T18:17:18.977Z,64.50
2018-08-17T18:19:50.204Z,64.60
2018-08-17T18:22:35.676Z,64.80
2018-08-17T18:25:11.376Z,65.10
2018-08-17T18:27:41.442Z,65.70
2018-08-17T18:30:12.694Z,66.20
2018-08-17T18:32:42.942Z,66.60
2018-08-17T18:35:12.737Z,67.00
2018-08-17T18:37:44.478Z,67.60
2018-08-17T18:40:14.997Z,68.20
2018-08-17T18:42:45.428Z,67.90
2018-08-17T18:45:16.036Z,68.70
2018-08-17T18:47:46.645Z,69.30
2018-08-17T18:50:17.500Z,69.80
2018-08-17T18:52:47.340Z,70.30
2018-08-17T18:55:19.223Z,70.60
2018-08-17T18:57:50.391Z,71.00
2018-08-17T19:00:21.154Z,71.30
2018-08-17T19:02:51.639Z,71.90
2018-08-17T19:05:20.958Z,72.30
2018-08-17T19:07:49.731Z,72.90
2018-08-17T19:10:21.254Z,73.00
2018-08-17T19:12:52.506Z,74.40
2018-08-17T19:15:23.156Z,75.60
2018-08-17T19:17:55.074Z,77.00
2018-08-17T19:20:26.202Z,78.50
2018-08-17T19:22:56.619Z,79.20
2018-08-17T19:25:25.776Z,80.10
2018-08-17T19:27:57.501Z,80.90
2018-08-17T19:30:33.910Z,81.70
2018-08-17T19:33:12.738Z,82.40
2018-08-17T19:35:48.184Z,83.20
2018-08-17T19:38:19.667Z,83.40
2018-08-17T19:40:50.494Z,84.30
2018-08-17T19:43:21.614Z,85.10
2018-08-17T19:45:52.664Z,85.50
2018-08-17T19:48:23.745Z,85.90
2018-08-17T19:50:55.859Z,86.50
2018-08-17T19:53:26.902Z,86.80
2018-08-17T19:58:42.771Z,86.70
2018-08-17T20:01:14.119Z,85.70
2018-08-17T20:03:44.794Z,84.60
2018-08-17T20:06:15.595Z,85.20
2018-08-17T20:11:55.003Z,86.70
2018-08-17T20:14:26.756Z,86.20
2018-08-17T20:16:57.448Z,85.20
2018-08-17T20:19:35.877Z,85.00
2018-08-17T20:22:12.219Z,84.30
2018-08-17T20:24:43.116Z,83.50
2018-08-17T20:27:13.857Z,83.10
2018-08-17T20:29:44.969Z,83.00
2018-08-17T20:32:14.892Z,83.10
2018-08-17T20:34:48.391Z,83.20
2018-08-17T20:37:19.136Z,83.30
2018-08-17T20:39:49.560Z,83.20
2018-08-17T20:42:18.730Z,82.90
2018-08-17T20:44:49.852Z,83.20
2018-08-17T20:47:20.696Z,83.40
2018-08-17T20:49:51.385Z,82.90
2018-08-17T20:52:22.472Z,82.70
2018-08-17T20:54:52.672Z,82.70
2018-08-17T20:57:23.197Z,82.70
2018-08-17T20:59:54.902Z,82.60
2018-08-17T21:02:23.788Z,82.60
2018-08-17T21:04:55.748Z,82.60
2018-08-17T21:07:28.004Z,82.80
2018-08-17T21:09:58.605Z,82.40
2018-08-17T21:12:31.293Z,82.40
2018-08-17T21:15:02.147Z,82.70
2018-08-17T21:17:34.008Z,82.70
2018-08-17T21:20:13.363Z,82.90
2018-08-17T21:22:46.640Z,83.20
2018-08-17T21:25:17.914Z,83.40
2018-08-17T21:27:46.997Z,83.80
2018-08-17T21:30:19.096Z,83.80
2018-08-17T21:32:47.976Z,84.40
2018-08-17T21:35:19.023Z,84.80
2018-08-17T21:37:50.259Z,85.20
2018-08-17T21:40:26.128Z,85.40
2018-08-17T21:42:58.443Z,85.20
2018-08-17T21:45:29.310Z,85.60
2018-08-17T21:48:01.473Z,85.90
2018-08-17T21:50:33.520Z,86.20
2018-08-17T21:53:08.235Z,86.00
2018-08-17T21:55:39.996Z,86.50
2018-08-17T21:58:11.508Z,87.50
2018-08-17T22:00:43.096Z,88.00
2018-08-17T22:03:19.538Z,88.70
2018-08-17T22:05:49.924Z,88.50
2018-08-17T22:08:20.582Z,88.40
2018-08-17T22:10:52.171Z,88.80
2018-08-17T22:13:34.280Z,89.20
2018-08-17T22:16:05.088Z,89.30
2018-08-17T22:18:36.084Z,89.40
2018-08-17T22:21:06.353Z,89.60
2018-08-17T22:23:37.110Z,89.70
2018-08-17T22:26:07.884Z,89.70
2018-08-17T22:28:38.960Z,90.40
2018-08-17T22:31:09.825Z,90.30
2018-08-17T22:33:40.165Z,90.60
2018-08-17T22:36:17.811Z,90.90
2018-08-17T22:38:47.968Z,91.20
2018-08-17T22:41:18.767Z,91.50
2018-08-17T22:43:49.029Z,91.80
2018-08-17T22:46:20.301Z,92.80
2018-08-17T22:48:50.706Z,92.10
2018-08-17T22:51:21.365Z,92.50
2018-08-17T22:53:52.341Z,92.10
2018-08-17T22:56:22.683Z,91.50
2018-08-17T22:58:53.284Z,91.90
2018-08-17T23:01:24.049Z,91.90
2018-08-17T23:03:55.534Z,92.20
2018-08-17T23:06:26.854Z,92.10
2018-08-17T23:08:57.168Z,91.90
2018-08-17T23:11:34.064Z,92.40
2018-08-17T23:14:09.555Z,92.80
2018-08-17T23:16:40.296Z,93.10
2018-08-17T23:19:10.686Z,93.50
2018-08-17T23:21:41.170Z,94.00
2018-08-17T23:24:12.244Z,94.60
2018-08-17T23:26:43.428Z,95.20
2018-08-17T23:29:13.856Z,95.70
2018-08-17T23:31:45.004Z,95.90
2018-08-17T23:34:20.857Z,96.10
2018-08-17T23:36:51.128Z,95.80
2018-08-17T23:59:49.652Z,97.00
